sensor_id;sensor_type;location;lat;lon;timestamp;temperature;humidity
12436;DHT22;6282;51.440;6.938;2022-07-10T00:00:08;13.90;96.70
12436;DHT22;6282;51.440;6.938;2022-07-10T00:02:35;14.50;99.90
12436;DHT22;6282;51.440;6.938;2022-07-10T00:05:02;14.70;99.90
12436;DHT22;6282;51.440;6.938;2022-07-10T00:07:29;14.80;1.00
12436;DHT22;6282;51.440;6.938;2022-07-10T00:09:56;14.60;1.00
12436;DHT22;6282;51.440;6.938;2022-07-10T00:12:23;14.60;99.90
12436;DHT22;6282;51.440;6.938;2022-07-10T00:14:51;14.80;99.90
12436;DHT22;6282;51.440;6.938;2022-07-10T00:17:18;14.60;1.00
12436;DHT22;6282;51.440;6.938;2022-07-10T00:19:45;14.50;1.00
12436;DHT22;6282;51.440;6.938;2022-07-10T00:22:12;14.60;1.00
12436;DHT22;6282;51.440;6.938;2022-07-10T00:24:39;14.60;1.00
12436;DHT22;6282;51.440;6.938;2022-07-10T00:27:06;14.70;1.00
12436;DHT22;6282;51.440;6.938;2022-07-10T00:29:32;14.60;1.00
12436;DHT22;6282;51.440;6.938;2022-07-10T00:32:01;14.80;95.40
12436;DHT22;6282;51.440;6.938;2022-07-10T00:34:28;14.90;1.00
12436;DHT22;6282;51.440;6.938;2022-07-10T00:36:54;14.90;1.00
12436;DHT22;6282;51.440;6.938;2022-07-10T00:39:21;15.10;99.90
12436;DHT22;6282;51.440;6.938;2022-07-10T00:41:48;15.00;1.00
12436;DHT22;6282;51.440;6.938;2022-07-10T00:44:15;14.90;1.00
12436;DHT22;6282;51.440;6.938;2022-07-10T00:46:42;15.00;1.00
12436;DHT22;6282;51.440;6.938;2022-07-10T00:49:10;15.20;28.10
12436;DHT22;6282;51.440;6.938;2022-07-10T00:51:37;15.00;99.90
12436;DHT22;6282;51.440;6.938;2022-07-10T00:54:05;15.10;99.90
12436;DHT22;6282;51.440;6.938;2022-07-10T00:56:32;15.10;99.90
12436;DHT22;6282;51.440;6.938;2022-07-10T00:58:59;15.00;1.00
12436;DHT22;6282;51.440;6.938;2022-07-10T01:01:27;15.20;1.00
12436;DHT22;6282;51.440;6.938;2022-07-10T01:03:53;15.30;91.40
12436;DHT22;6282;51.440;6.938;2022-07-10T01:06:22;15.10;99.90
12436;DHT22;6282;51.440;6.938;2022-07-10T01:08:48;15.00;99.90
12436;DHT22;6282;51.440;6.938;2022-07-10T01:11:15;15.10;99.90
12436;DHT22;6282;51.440;6.938;2022-07-10T01:13:43;15.00;1.00
12436;DHT22;6282;51.440;6.938;2022-07-10T01:16:11;15.30;1.00
12436;DHT22;6282;51.440;6.938;2022-07-10T01:18:38;15.20;1.00
12436;DHT22;6282;51.440;6.938;2022-07-10T01:21:06;15.00;1.00
12436;DHT22;6282;51.440;6.938;2022-07-10T01:23:49;15.20;1.00
12436;DHT22;6282;51.440;6.938;2022-07-10T01:26:16;14.90;57.10
12436;DHT22;6282;51.440;6.938;2022-07-10T01:28:43;15.00;1.00
12436;DHT22;6282;51.440;6.938;2022-07-10T01:31:10;15.20;99.90
12436;DHT22;6282;51.440;6.938;2022-07-10T01:33:37;15.30;99.90
12436;DHT22;6282;51.440;6.938;2022-07-10T01:36:05;15.10;1.00
12436;DHT22;6282;51.440;6.938;2022-07-10T01:38:32;15.00;1.00
12436;DHT22;6282;51.440;6.938;2022-07-10T01:40:59;14.90;99.90
12436;DHT22;6282;51.440;6.938;2022-07-10T01:43:26;15.00;1.00
12436;DHT22;6282;51.440;6.938;2022-07-10T01:45:53;15.10;99.90
12436;DHT22;6282;51.440;6.938;2022-07-10T01:48:20;15.00;66.80
12436;DHT22;6282;51.440;6.938;2022-07-10T01:50:47;14.90;99.90
12436;DHT22;6282;51.440;6.938;2022-07-10T01:53:15;15.00;99.90
12436;DHT22;6282;51.440;6.938;2022-07-10T01:55:42;15.20;1.00
12436;DHT22;6282;51.440;6.938;2022-07-10T01:58:09;15.00;5.60
12436;DHT22;6282;51.440;6.938;2022-07-10T02:00:35;15.00;1.00
12436;DHT22;6282;51.440;6.938;2022-07-10T02:03:03;15.20;73.90
12436;DHT22;6282;51.440;6.938;2022-07-10T02:05:47;15.20;99.90
12436;DHT22;6282;51.440;6.938;2022-07-10T02:08:15;15.00;99.90
12436;DHT22;6282;51.440;6.938;2022-07-10T02:10:42;15.00;1.00
12436;DHT22;6282;51.440;6.938;2022-07-10T02:13:10;15.10;99.90
12436;DHT22;6282;51.440;6.938;2022-07-10T02:15:40;15.00;1.00
12436;DHT22;6282;51.440;6.938;2022-07-10T02:18:07;14.90;1.00
12436;DHT22;6282;51.440;6.938;2022-07-10T02:20:34;14.90;1.00
12436;DHT22;6282;51.440;6.938;2022-07-10T02:23:01;14.60;1.00
12436;DHT22;6282;51.440;6.938;2022-07-10T02:25:30;14.50;1.00
12436;DHT22;6282;51.440;6.938;2022-07-10T02:27:57;14.50;1.00
12436;DHT22;6282;51.440;6.938;2022-07-10T02:30:24;14.40;1.00
12436;DHT22;6282;51.440;6.938;2022-07-10T02:32:51;14.50;99.90
12436;DHT22;6282;51.440;6.938;2022-07-10T02:35:18;14.40;1.00
12436;DHT22;6282;51.440;6.938;2022-07-10T02:37:44;14.40;99.90
12436;DHT22;6282;51.440;6.938;2022-07-10T02:40:11;14.50;99.90
12436;DHT22;6282;51.440;6.938;2022-07-10T02:42:39;14.60;99.90
12436;DHT22;6282;51.440;6.938;2022-07-10T02:45:07;14.40;1.00
12436;DHT22;6282;51.440;6.938;2022-07-10T02:47:34;14.40;99.90
12436;DHT22;6282;51.440;6.938;2022-07-10T02:50:01;14.20;40.40
12436;DHT22;6282;51.440;6.938;2022-07-10T02:52:28;14.30;99.90
12436;DHT22;6282;51.440;6.938;2022-07-10T02:54:56;14.20;99.90
12436;DHT22;6282;51.440;6.938;2022-07-10T02:57:23;14.30;99.90
12436;DHT22;6282;51.440;6.938;2022-07-10T02:59:51;14.30;99.90
12436;DHT22;6282;51.440;6.938;2022-07-10T03:02:18;14.50;99.90
12436;DHT22;6282;51.440;6.938;2022-07-10T03:04:45;14.40;99.90
12436;DHT22;6282;51.440;6.938;2022-07-10T03:07:12;14.30;75.60
12436;DHT22;6282;51.440;6.938;2022-07-10T03:09:39;14.50;99.90
12436;DHT22;6282;51.440;6.938;2022-07-10T03:12:07;14.30;99.90
12436;DHT22;6282;51.440;6.938;2022-07-10T03:14:34;14.40;99.90
12436;DHT22;6282;51.440;6.938;2022-07-10T03:17:02;14.30;99.90
12436;DHT22;6282;51.440;6.938;2022-07-10T03:19:29;14.20;99.90
12436;DHT22;6282;51.440;6.938;2022-07-10T03:21:56;14.10;99.90
12436;DHT22;6282;51.440;6.938;2022-07-10T03:24:23;14.20;99.90
12436;DHT22;6282;51.440;6.938;2022-07-10T03:26:50;14.10;99.90
12436;DHT22;6282;51.440;6.938;2022-07-10T03:29:17;14.10;99.90
12436;DHT22;6282;51.440;6.938;2022-07-10T03:31:43;14.20;99.90
12436;DHT22;6282;51.440;6.938;2022-07-10T03:34:12;14.20;99.90
12436;DHT22;6282;51.440;6.938;2022-07-10T03:36:38;14.10;99.90
12436;DHT22;6282;51.440;6.938;2022-07-10T03:39:05;14.30;99.90
12436;DHT22;6282;51.440;6.938;2022-07-10T03:41:32;14.30;99.90
12436;DHT22;6282;51.440;6.938;2022-07-10T03:43:59;14.20;99.90
12436;DHT22;6282;51.440;6.938;2022-07-10T03:46:26;14.20;99.90
12436;DHT22;6282;51.440;6.938;2022-07-10T03:48:53;14.20;99.90
12436;DHT22;6282;51.440;6.938;2022-07-10T03:51:21;14.10;99.90
12436;DHT22;6282;51.440;6.938;2022-07-10T03:53:48;14.10;99.90
12436;DHT22;6282;51.440;6.938;2022-07-10T03:56:14;14.20;99.90
12436;DHT22;6282;51.440;6.938;2022-07-10T03:58:55;14.10;99.90
12436;DHT22;6282;51.440;6.938;2022-07-10T04:01:22;14.20;99.90
12436;DHT22;6282;51.440;6.938;2022-07-10T04:03:49;14.20;99.90
12436;DHT22;6282;51.440;6.938;2022-07-10T04:06:16;14.00;99.90
12436;DHT22;6282;51.440;6.938;2022-07-10T04:08:44;14.10;99.90
12436;DHT22;6282;51.440;6.938;2022-07-10T04:11:11;14.10;99.90
12436;DHT22;6282;51.440;6.938;2022-07-10T04:13:38;14.20;99.90
12436;DHT22;6282;51.440;6.938;2022-07-10T04:16:05;14.50;99.90
12436;DHT22;6282;51.440;6.938;2022-07-10T04:18:32;14.30;99.90
12436;DHT22;6282;51.440;6.938;2022-07-10T04:20:59;14.40;99.90
12436;DHT22;6282;51.440;6.938;2022-07-10T04:23:26;14.50;99.90
12436;DHT22;6282;51.440;6.938;2022-07-10T04:25:54;14.40;99.90
12436;DHT22;6282;51.440;6.938;2022-07-10T04:28:23;14.10;99.90
12436;DHT22;6282;51.440;6.938;2022-07-10T04:30:49;14.40;99.90
12436;DHT22;6282;51.440;6.938;2022-07-10T04:33:16;14.20;99.90
12436;DHT22;6282;51.440;6.938;2022-07-10T04:35:43;14.20;99.90
12436;DHT22;6282;51.440;6.938;2022-07-10T04:38:10;14.40;99.90
12436;DHT22;6282;51.440;6.938;2022-07-10T04:40:37;14.20;99.90
12436;DHT22;6282;51.440;6.938;2022-07-10T04:43:05;14.10;99.90
12436;DHT22;6282;51.440;6.938;2022-07-10T04:45:32;14.20;99.90
12436;DHT22;6282;51.440;6.938;2022-07-10T04:47:59;14.30;99.90
12436;DHT22;6282;51.440;6.938;2022-07-10T04:50:26;14.40;99.90
12436;DHT22;6282;51.440;6.938;2022-07-10T04:52:52;14.40;99.90
12436;DHT22;6282;51.440;6.938;2022-07-10T04:55:19;14.50;99.90
12436;DHT22;6282;51.440;6.938;2022-07-10T04:57:47;14.40;99.90
12436;DHT22;6282;51.440;6.938;2022-07-10T05:00:15;14.40;99.90
12436;DHT22;6282;51.440;6.938;2022-07-10T05:02:42;14.20;99.90
12436;DHT22;6282;51.440;6.938;2022-07-10T05:05:09;14.20;99.90
12436;DHT22;6282;51.440;6.938;2022-07-10T05:07:36;14.40;99.90
12436;DHT22;6282;51.440;6.938;2022-07-10T05:10:03;14.40;99.90
12436;DHT22;6282;51.440;6.938;2022-07-10T05:12:30;14.60;99.90
12436;DHT22;6282;51.440;6.938;2022-07-10T05:14:57;14.70;99.90
12436;DHT22;6282;51.440;6.938;2022-07-10T05:17:27;14.60;99.90
12436;DHT22;6282;51.440;6.938;2022-07-10T05:19:54;14.70;99.90
12436;DHT22;6282;51.440;6.938;2022-07-10T05:22:22;14.80;99.90
12436;DHT22;6282;51.440;6.938;2022-07-10T05:24:49;15.00;99.90
12436;DHT22;6282;51.440;6.938;2022-07-10T05:27:16;15.30;99.90
12436;DHT22;6282;51.440;6.938;2022-07-10T05:29:45;15.10;99.90
12436;DHT22;6282;51.440;6.938;2022-07-10T05:32:12;15.40;1.00
12436;DHT22;6282;51.440;6.938;2022-07-10T05:34:40;15.80;99.90
12436;DHT22;6282;51.440;6.938;2022-07-10T05:37:07;15.70;99.90
12436;DHT22;6282;51.440;6.938;2022-07-10T05:39:34;15.70;1.00
12436;DHT22;6282;51.440;6.938;2022-07-10T05:42:01;15.80;42.70
12436;DHT22;6282;51.440;6.938;2022-07-10T05:44:28;15.40;1.00
12436;DHT22;6282;51.440;6.938;2022-07-10T05:46:55;15.30;1.00
12436;DHT22;6282;51.440;6.938;2022-07-10T05:49:22;15.50;1.00
12436;DHT22;6282;51.440;6.938;2022-07-10T05:51:50;15.50;1.00
12436;DHT22;6282;51.440;6.938;2022-07-10T05:54:17;15.60;99.90
12436;DHT22;6282;51.440;6.938;2022-07-10T05:56:44;15.50;99.90
12436;DHT22;6282;51.440;6.938;2022-07-10T05:59:11;15.70;99.90
12436;DHT22;6282;51.440;6.938;2022-07-10T06:01:38;15.60;1.00
12436;DHT22;6282;51.440;6.938;2022-07-10T06:04:05;15.30;1.00
12436;DHT22;6282;51.440;6.938;2022-07-10T06:06:32;15.30;1.00
12436;DHT22;6282;51.440;6.938;2022-07-10T06:09:00;15.30;1.00
12436;DHT22;6282;51.440;6.938;2022-07-10T06:11:26;15.40;99.90
12436;DHT22;6282;51.440;6.938;2022-07-10T06:13:53;15.50;99.90
12436;DHT22;6282;51.440;6.938;2022-07-10T06:16:21;15.60;99.90
12436;DHT22;6282;51.440;6.938;2022-07-10T06:18:48;15.60;1.00
12436;DHT22;6282;51.440;6.938;2022-07-10T06:21:15;15.30;99.90
12436;DHT22;6282;51.440;6.938;2022-07-10T06:23:47;15.20;1.00
12436;DHT22;6282;51.440;6.938;2022-07-10T06:26:15;15.30;1.00
12436;DHT22;6282;51.440;6.938;2022-07-10T06:28:42;15.30;1.00
12436;DHT22;6282;51.440;6.938;2022-07-10T06:31:09;15.40;99.90
12436;DHT22;6282;51.440;6.938;2022-07-10T06:33:35;15.10;35.10
12436;DHT22;6282;51.440;6.938;2022-07-10T06:36:03;15.00;99.90
12436;DHT22;6282;51.440;6.938;2022-07-10T06:38:30;15.20;1.00
12436;DHT22;6282;51.440;6.938;2022-07-10T06:40:57;15.30;1.00
12436;DHT22;6282;51.440;6.938;2022-07-10T06:43:25;15.20;26.30
12436;DHT22;6282;51.440;6.938;2022-07-10T06:45:52;15.30;99.90
12436;DHT22;6282;51.440;6.938;2022-07-10T06:48:19;15.40;1.00
12436;DHT22;6282;51.440;6.938;2022-07-10T06:50:45;15.20;1.00
12436;DHT22;6282;51.440;6.938;2022-07-10T06:53:12;15.10;99.90
12436;DHT22;6282;51.440;6.938;2022-07-10T06:55:40;15.10;1.00
12436;DHT22;6282;51.440;6.938;2022-07-10T06:58:08;15.20;99.90
12436;DHT22;6282;51.440;6.938;2022-07-10T07:00:36;15.30;99.90
12436;DHT22;6282;51.440;6.938;2022-07-10T07:03:03;15.30;1.00
12436;DHT22;6282;51.440;6.938;2022-07-10T07:05:30;15.40;1.00
12436;DHT22;6282;51.440;6.938;2022-07-10T07:07:57;15.60;23.00
12436;DHT22;6282;51.440;6.938;2022-07-10T07:10:24;15.70;1.00
12436;DHT22;6282;51.440;6.938;2022-07-10T07:12:50;15.70;1.00
12436;DHT22;6282;51.440;6.938;2022-07-10T07:15:17;15.70;99.90
12436;DHT22;6282;51.440;6.938;2022-07-10T07:17:49;15.70;1.00
12436;DHT22;6282;51.440;6.938;2022-07-10T07:20:33;15.70;99.90
12436;DHT22;6282;51.440;6.938;2022-07-10T07:23:17;15.60;99.90
12436;DHT22;6282;51.440;6.938;2022-07-10T07:25:44;15.80;1.00
12436;DHT22;6282;51.440;6.938;2022-07-10T07:28:13;15.50;1.00
12436;DHT22;6282;51.440;6.938;2022-07-10T07:30:42;15.30;99.90
12436;DHT22;6282;51.440;6.938;2022-07-10T07:33:10;15.20;1.00
12436;DHT22;6282;51.440;6.938;2022-07-10T07:35:37;15.30;99.90
12436;DHT22;6282;51.440;6.938;2022-07-10T07:38:05;15.20;1.00
12436;DHT22;6282;51.440;6.938;2022-07-10T07:40:32;15.40;99.90
12436;DHT22;6282;51.440;6.938;2022-07-10T07:43:00;15.60;1.00
12436;DHT22;6282;51.440;6.938;2022-07-10T07:45:27;15.50;1.00
12436;DHT22;6282;51.440;6.938;2022-07-10T07:47:55;15.60;99.90
12436;DHT22;6282;51.440;6.938;2022-07-10T07:50:25;15.30;1.00
12436;DHT22;6282;51.440;6.938;2022-07-10T07:52:53;15.40;96.70
12436;DHT22;6282;51.440;6.938;2022-07-10T07:55:21;15.40;99.90
12436;DHT22;6282;51.440;6.938;2022-07-10T07:57:51;15.80;1.00
12436;DHT22;6282;51.440;6.938;2022-07-10T08:00:19;15.90;99.90
12436;DHT22;6282;51.440;6.938;2022-07-10T08:02:48;15.60;1.00
12436;DHT22;6282;51.440;6.938;2022-07-10T08:05:14;15.50;99.90
12436;DHT22;6282;51.440;6.938;2022-07-10T08:07:44;15.60;99.90
12436;DHT22;6282;51.440;6.938;2022-07-10T08:10:13;15.70;99.90
12436;DHT22;6282;51.440;6.938;2022-07-10T08:12:40;15.40;99.90
12436;DHT22;6282;51.440;6.938;2022-07-10T08:15:08;15.00;99.90
12436;DHT22;6282;51.440;6.938;2022-07-10T08:17:35;14.70;99.90
12436;DHT22;6282;51.440;6.938;2022-07-10T08:20:03;14.90;99.90
12436;DHT22;6282;51.440;6.938;2022-07-10T08:22:30;15.20;99.90
12436;DHT22;6282;51.440;6.938;2022-07-10T08:24:58;15.10;99.90
12436;DHT22;6282;51.440;6.938;2022-07-10T08:27:25;15.20;99.90
12436;DHT22;6282;51.440;6.938;2022-07-10T08:29:52;15.00;99.90
12436;DHT22;6282;51.440;6.938;2022-07-10T08:32:19;15.00;99.90
12436;DHT22;6282;51.440;6.938;2022-07-10T08:34:45;15.20;99.90
12436;DHT22;6282;51.440;6.938;2022-07-10T08:37:14;15.20;99.90
12436;DHT22;6282;51.440;6.938;2022-07-10T08:39:40;15.30;99.90
12436;DHT22;6282;51.440;6.938;2022-07-10T08:42:10;15.20;99.90
12436;DHT22;6282;51.440;6.938;2022-07-10T08:44:37;15.20;99.90
12436;DHT22;6282;51.440;6.938;2022-07-10T08:47:05;15.20;99.90
12436;DHT22;6282;51.440;6.938;2022-07-10T08:49:32;15.50;99.90
12436;DHT22;6282;51.440;6.938;2022-07-10T08:52:03;15.50;99.90
12436;DHT22;6282;51.440;6.938;2022-07-10T08:54:31;15.70;99.90
12436;DHT22;6282;51.440;6.938;2022-07-10T08:57:00;16.20;99.90
12436;DHT22;6282;51.440;6.938;2022-07-10T08:59:29;16.20;99.90
12436;DHT22;6282;51.440;6.938;2022-07-10T09:01:56;15.90;99.90
12436;DHT22;6282;51.440;6.938;2022-07-10T09:04:25;16.20;99.90
12436;DHT22;6282;51.440;6.938;2022-07-10T09:06:53;16.20;99.90
12436;DHT22;6282;51.440;6.938;2022-07-10T09:09:21;16.40;99.90
12436;DHT22;6282;51.440;6.938;2022-07-10T09:11:55;16.20;99.90
12436;DHT22;6282;51.440;6.938;2022-07-10T09:14:22;16.10;99.90
12436;DHT22;6282;51.440;6.938;2022-07-10T09:16:53;16.40;99.90
12436;DHT22;6282;51.440;6.938;2022-07-10T09:19:22;16.40;99.90
12436;DHT22;6282;51.440;6.938;2022-07-10T09:21:49;16.40;99.90
12436;DHT22;6282;51.440;6.938;2022-07-10T09:24:17;16.40;99.90
12436;DHT22;6282;51.440;6.938;2022-07-10T09:26:58;16.20;99.90
12436;DHT22;6282;51.440;6.938;2022-07-10T09:29:26;15.80;99.90
12436;DHT22;6282;51.440;6.938;2022-07-10T09:31:55;15.90;99.90
12436;DHT22;6282;51.440;6.938;2022-07-10T09:34:36;16.00;99.90
12436;DHT22;6282;51.440;6.938;2022-07-10T09:37:24;16.20;99.90
12436;DHT22;6282;51.440;6.938;2022-07-10T09:39:57;16.20;99.90
12436;DHT22;6282;51.440;6.938;2022-07-10T09:42:25;16.50;99.90
12436;DHT22;6282;51.440;6.938;2022-07-10T09:44:52;16.10;99.90
12436;DHT22;6282;51.440;6.938;2022-07-10T09:47:23;16.20;99.90
12436;DHT22;6282;51.440;6.938;2022-07-10T09:49:50;16.40;99.90
12436;DHT22;6282;51.440;6.938;2022-07-10T09:52:18;16.40;99.90
12436;DHT22;6282;51.440;6.938;2022-07-10T09:54:46;16.30;99.90
12436;DHT22;6282;51.440;6.938;2022-07-10T09:57:16;16.00;99.90
12436;DHT22;6282;51.440;6.938;2022-07-10T09:59:44;15.90;99.90
12436;DHT22;6282;51.440;6.938;2022-07-10T10:02:11;15.80;99.90
12436;DHT22;6282;51.440;6.938;2022-07-10T10:04:41;16.00;99.90
12436;DHT22;6282;51.440;6.938;2022-07-10T10:07:12;15.90;99.90
12436;DHT22;6282;51.440;6.938;2022-07-10T10:09:41;16.00;99.90
12436;DHT22;6282;51.440;6.938;2022-07-10T10:12:17;15.80;99.90
12436;DHT22;6282;51.440;6.938;2022-07-10T10:14:54;16.30;99.90
12436;DHT22;6282;51.440;6.938;2022-07-10T10:17:24;16.70;99.90
12436;DHT22;6282;51.440;6.938;2022-07-10T10:19:56;16.80;99.90
12436;DHT22;6282;51.440;6.938;2022-07-10T10:22:41;17.10;99.90
12436;DHT22;6282;51.440;6.938;2022-07-10T10:25:09;17.20;99.90
12436;DHT22;6282;51.440;6.938;2022-07-10T10:27:43;17.30;99.90
12436;DHT22;6282;51.440;6.938;2022-07-10T10:30:11;17.10;99.90
12436;DHT22;6282;51.440;6.938;2022-07-10T10:32:44;16.80;99.90
12436;DHT22;6282;51.440;6.938;2022-07-10T10:35:42;16.80;99.90
12436;DHT22;6282;51.440;6.938;2022-07-10T10:38:11;16.30;99.90
12436;DHT22;6282;51.440;6.938;2022-07-10T10:41:22;15.80;99.90
12436;DHT22;6282;51.440;6.938;2022-07-10T10:44:25;16.00;99.90
12436;DHT22;6282;51.440;6.938;2022-07-10T10:46:56;15.90;99.90
12436;DHT22;6282;51.440;6.938;2022-07-10T10:49:27;16.30;99.90
12436;DHT22;6282;51.440;6.938;2022-07-10T10:52:15;16.30;99.90
12436;DHT22;6282;51.440;6.938;2022-07-10T10:55:06;16.70;99.90
12436;DHT22;6282;51.440;6.938;2022-07-10T10:57:41;16.80;99.90
12436;DHT22;6282;51.440;6.938;2022-07-10T11:00:34;17.10;99.90
12436;DHT22;6282;51.440;6.938;2022-07-10T11:03:16;17.60;99.90
12436;DHT22;6282;51.440;6.938;2022-07-10T11:05:44;17.50;99.90
12436;DHT22;6282;51.440;6.938;2022-07-10T11:08:41;17.40;99.90
12436;DHT22;6282;51.440;6.938;2022-07-10T11:11:37;16.90;99.90
12436;DHT22;6282;51.440;6.938;2022-07-10T11:14:06;16.90;99.90
12436;DHT22;6282;51.440;6.938;2022-07-10T11:16:38;16.70;99.90
12436;DHT22;6282;51.440;6.938;2022-07-10T11:19:13;16.50;99.90
12436;DHT22;6282;51.440;6.938;2022-07-10T11:21:46;16.60;99.90
12436;DHT22;6282;51.440;6.938;2022-07-10T11:24:33;16.40;99.90
12436;DHT22;6282;51.440;6.938;2022-07-10T11:27:06;16.70;99.90
12436;DHT22;6282;51.440;6.938;2022-07-10T11:29:36;17.00;99.90
12436;DHT22;6282;51.440;6.938;2022-07-10T11:32:05;17.60;99.90
12436;DHT22;6282;51.440;6.938;2022-07-10T11:34:36;17.90;99.90
12436;DHT22;6282;51.440;6.938;2022-07-10T11:37:13;17.70;99.90
12436;DHT22;6282;51.440;6.938;2022-07-10T11:39:41;17.50;99.90
12436;DHT22;6282;51.440;6.938;2022-07-10T11:42:08;17.60;99.90
12436;DHT22;6282;51.440;6.938;2022-07-10T11:44:35;17.70;99.90
12436;DHT22;6282;51.440;6.938;2022-07-10T11:47:02;17.00;99.90
12436;DHT22;6282;51.440;6.938;2022-07-10T11:49:30;17.10;99.90
12436;DHT22;6282;51.440;6.938;2022-07-10T11:52:01;17.00;99.90
12436;DHT22;6282;51.440;6.938;2022-07-10T11:54:29;17.20;99.90
12436;DHT22;6282;51.440;6.938;2022-07-10T11:57:05;17.60;99.90
12436;DHT22;6282;51.440;6.938;2022-07-10T11:59:33;17.70;99.90
12436;DHT22;6282;51.440;6.938;2022-07-10T12:02:00;17.30;99.90
12436;DHT22;6282;51.440;6.938;2022-07-10T12:04:29;17.30;99.90
12436;DHT22;6282;51.440;6.938;2022-07-10T12:06:57;17.00;99.90
12436;DHT22;6282;51.440;6.938;2022-07-10T12:09:25;17.40;99.90
12436;DHT22;6282;51.440;6.938;2022-07-10T12:12:00;17.50;99.90
12436;DHT22;6282;51.440;6.938;2022-07-10T12:14:27;17.80;99.90
12436;DHT22;6282;51.440;6.938;2022-07-10T12:16:59;18.10;99.90
12436;DHT22;6282;51.440;6.938;2022-07-10T12:19:28;17.80;99.90
12436;DHT22;6282;51.440;6.938;2022-07-10T12:21:57;17.90;99.90
12436;DHT22;6282;51.440;6.938;2022-07-10T12:24:24;17.90;99.90
12436;DHT22;6282;51.440;6.938;2022-07-10T12:26:52;17.60;99.90
12436;DHT22;6282;51.440;6.938;2022-07-10T12:29:23;17.60;99.90
12436;DHT22;6282;51.440;6.938;2022-07-10T12:31:52;17.50;99.90
12436;DHT22;6282;51.440;6.938;2022-07-10T12:34:31;17.50;99.90
12436;DHT22;6282;51.440;6.938;2022-07-10T12:36:58;17.60;99.90
12436;DHT22;6282;51.440;6.938;2022-07-10T12:39:36;17.50;99.90
12436;DHT22;6282;51.440;6.938;2022-07-10T12:42:05;17.80;99.90
12436;DHT22;6282;51.440;6.938;2022-07-10T12:44:41;17.70;99.90
12436;DHT22;6282;51.440;6.938;2022-07-10T12:47:09;17.60;99.90
12436;DHT22;6282;51.440;6.938;2022-07-10T12:49:54;17.80;99.90
12436;DHT22;6282;51.440;6.938;2022-07-10T12:52:26;18.10;99.90
12436;DHT22;6282;51.440;6.938;2022-07-10T12:55:07;18.40;99.90
12436;DHT22;6282;51.440;6.938;2022-07-10T12:57:48;18.90;99.90
12436;DHT22;6282;51.440;6.938;2022-07-10T13:00:19;19.10;99.90
12436;DHT22;6282;51.440;6.938;2022-07-10T13:02:46;19.10;99.90
12436;DHT22;6282;51.440;6.938;2022-07-10T13:05:29;19.10;99.90
12436;DHT22;6282;51.440;6.938;2022-07-10T13:08:06;19.50;99.90
12436;DHT22;6282;51.440;6.938;2022-07-10T13:10:34;19.10;1.00
12436;DHT22;6282;51.440;6.938;2022-07-10T13:13:01;19.10;99.90
12436;DHT22;6282;51.440;6.938;2022-07-10T13:15:30;19.20;53.50
12436;DHT22;6282;51.440;6.938;2022-07-10T13:17:57;19.10;1.00
12436;DHT22;6282;51.440;6.938;2022-07-10T13:20:24;18.70;99.90
12436;DHT22;6282;51.440;6.938;2022-07-10T13:22:50;19.00;99.90
12436;DHT22;6282;51.440;6.938;2022-07-10T13:25:17;19.30;97.70
12436;DHT22;6282;51.440;6.938;2022-07-10T13:27:44;19.40;1.00
12436;DHT22;6282;51.440;6.938;2022-07-10T13:30:38;19.50;99.90
12436;DHT22;6282;51.440;6.938;2022-07-10T13:33:05;19.00;1.00
12436;DHT22;6282;51.440;6.938;2022-07-10T13:35:33;19.10;99.90
12436;DHT22;6282;51.440;6.938;2022-07-10T13:38:03;19.20;1.00
12436;DHT22;6282;51.440;6.938;2022-07-10T13:40:32;19.00;99.90
12436;DHT22;6282;51.440;6.938;2022-07-10T13:42:59;18.50;1.00
12436;DHT22;6282;51.440;6.938;2022-07-10T13:45:27;18.30;19.00
12436;DHT22;6282;51.440;6.938;2022-07-10T13:47:59;18.50;99.90
12436;DHT22;6282;51.440;6.938;2022-07-10T13:50:26;18.60;99.90
12436;DHT22;6282;51.440;6.938;2022-07-10T13:52:53;18.60;23.80
12436;DHT22;6282;51.440;6.938;2022-07-10T13:55:20;18.80;1.00
12436;DHT22;6282;51.440;6.938;2022-07-10T13:57:46;18.60;1.00
12436;DHT22;6282;51.440;6.938;2022-07-10T14:00:14;18.80;1.00
12436;DHT22;6282;51.440;6.938;2022-07-10T14:02:40;18.80;99.90
12436;DHT22;6282;51.440;6.938;2022-07-10T14:05:09;18.90;1.00
12436;DHT22;6282;51.440;6.938;2022-07-10T14:07:36;18.80;1.90
12436;DHT22;6282;51.440;6.938;2022-07-10T14:10:03;18.70;1.00
12436;DHT22;6282;51.440;6.938;2022-07-10T14:12:31;18.70;99.90
12436;DHT22;6282;51.440;6.938;2022-07-10T14:14:58;18.40;8.30
12436;DHT22;6282;51.440;6.938;2022-07-10T14:17:26;18.40;99.90
12436;DHT22;6282;51.440;6.938;2022-07-10T14:19:53;18.30;1.00
12436;DHT22;6282;51.440;6.938;2022-07-10T14:22:22;18.20;99.90
12436;DHT22;6282;51.440;6.938;2022-07-10T14:24:50;18.20;1.00
12436;DHT22;6282;51.440;6.938;2022-07-10T14:27:17;18.10;99.90
12436;DHT22;6282;51.440;6.938;2022-07-10T14:29:44;18.30;13.30
12436;DHT22;6282;51.440;6.938;2022-07-10T14:32:16;18.30;99.90
12436;DHT22;6282;51.440;6.938;2022-07-10T14:34:43;18.30;99.90
12436;DHT22;6282;51.440;6.938;2022-07-10T14:37:10;18.40;1.00
12436;DHT22;6282;51.440;6.938;2022-07-10T14:39:38;18.90;1.00
12436;DHT22;6282;51.440;6.938;2022-07-10T14:42:06;19.20;1.00
12436;DHT22;6282;51.440;6.938;2022-07-10T14:44:33;19.40;1.00
12436;DHT22;6282;51.440;6.938;2022-07-10T14:47:00;19.30;1.00
12436;DHT22;6282;51.440;6.938;2022-07-10T14:49:26;19.40;1.00
12436;DHT22;6282;51.440;6.938;2022-07-10T14:51:57;19.50;1.00
12436;DHT22;6282;51.440;6.938;2022-07-10T14:54:24;19.10;99.90
12436;DHT22;6282;51.440;6.938;2022-07-10T14:56:53;18.90;1.00
12436;DHT22;6282;51.440;6.938;2022-07-10T14:59:19;18.60;1.00
12436;DHT22;6282;51.440;6.938;2022-07-10T15:01:46;18.60;1.00
12436;DHT22;6282;51.440;6.938;2022-07-10T15:04:13;18.60;1.00
12436;DHT22;6282;51.440;6.938;2022-07-10T15:06:40;19.00;1.00
12436;DHT22;6282;51.440;6.938;2022-07-10T15:09:07;19.50;99.90
12436;DHT22;6282;51.440;6.938;2022-07-10T15:11:33;19.40;90.20
12436;DHT22;6282;51.440;6.938;2022-07-10T15:14:02;19.50;1.00
12436;DHT22;6282;51.440;6.938;2022-07-10T15:16:30;19.60;1.00
12436;DHT22;6282;51.440;6.938;2022-07-10T15:18:58;19.90;1.00
12436;DHT22;6282;51.440;6.938;2022-07-10T15:21:26;19.80;1.00
12436;DHT22;6282;51.440;6.938;2022-07-10T15:23:54;19.60;99.90
12436;DHT22;6282;51.440;6.938;2022-07-10T15:26:21;19.40;99.90
12436;DHT22;6282;51.440;6.938;2022-07-10T15:28:48;19.60;99.90
12436;DHT22;6282;51.440;6.938;2022-07-10T15:31:17;19.90;47.30
12436;DHT22;6282;51.440;6.938;2022-07-10T15:33:44;19.80;1.00
12436;DHT22;6282;51.440;6.938;2022-07-10T15:36:11;19.70;1.00
12436;DHT22;6282;51.440;6.938;2022-07-10T15:38:39;19.70;1.00
12436;DHT22;6282;51.440;6.938;2022-07-10T15:41:06;19.70;68.20
12436;DHT22;6282;51.440;6.938;2022-07-10T15:43:33;19.90;1.00
12436;DHT22;6282;51.440;6.938;2022-07-10T15:46:00;19.80;99.90
12436;DHT22;6282;51.440;6.938;2022-07-10T15:48:28;20.00;99.90
12436;DHT22;6282;51.440;6.938;2022-07-10T15:50:55;20.20;1.00
12436;DHT22;6282;51.440;6.938;2022-07-10T15:53:22;20.00;1.00
12436;DHT22;6282;51.440;6.938;2022-07-10T15:55:49;19.90;1.00
12436;DHT22;6282;51.440;6.938;2022-07-10T15:58:16;20.10;1.00
12436;DHT22;6282;51.440;6.938;2022-07-10T16:00:43;19.90;99.90